KFRG/FRG METAR and TAF weather

Enter ICAO airport designator
Station Type Date Time Source
KFRG METAR 2022/01/23 11:53 UTC NOAA

KFRG 231153Z 24004KT 10SM CLR M05/M14 A3000 RMK AO2 SLP160 T10501144 11033 21050 55005


Station Type Date Time Source
KFRG Decoded METAR 2022/01/23 11:53 UTC NOAA

FARMINGDALE REPUBLIC AIRPORT , NY, United States (KFRG) 40-44N 073-25W 21M
Jan 23, 2022 - 06:53 AM EST / 2022.01.23 1153 UTC
Wind: from the WSW (240 degrees) at 5 MPH (4 KT):0
Visibility: 10 mile(s):0
Sky conditions: clear
Temperature: 23.0 F (-5.0 C)
Windchill: 15 F (-9 C):1
Dew Point: 6.1 F (-14.4 C)
Relative Humidity: 47%
Pressure (altimeter): 30 in. Hg (1015 hPa)
Pressure tendency: 0.01 inches (0.5 hPa) lower than three hours ago
ob: KFRG 231153Z 24004KT 10SM CLR M05/M14 A3000 RMK AO2 SLP160 T10501144 11033 21050 55005
cycle: 12

Station Type Date Time Source
KFRG TAF UTC NOAA

Error!

Example: see airport list